sensor_id;sensor_type;location;lat;lon;timestamp;P1;durP1;ratioP1;P2;durP2;ratioP2
55915;SDS011;41826;53.246;-6.670;2023-07-28T00:02:00;3.25;;;1.45;;
55915;SDS011;41826;53.246;-6.670;2023-07-28T00:04:25;0.70;;;0.70;;
55915;SDS011;41826;53.246;-6.670;2023-07-28T00:06:51;2.78;;;0.90;;
55915;SDS011;41826;53.246;-6.670;2023-07-28T00:09:16;5.45;;;1.70;;
55915;SDS011;41826;53.246;-6.670;2023-07-28T00:11:42;1.60;;;1.10;;
55915;SDS011;41826;53.246;-6.670;2023-07-28T00:14:07;2.05;;;0.93;;
55915;SDS011;41826;53.246;-6.670;2023-07-28T00:16:32;2.88;;;1.20;;
55915;SDS011;41826;53.246;-6.670;2023-07-28T00:18:58;1.88;;;1.70;;
55915;SDS011;41826;53.246;-6.670;2023-07-28T00:21:23;3.88;;;1.73;;
55915;SDS011;41826;53.246;-6.670;2023-07-28T00:23:48;2.08;;;1.50;;
55915;SDS011;41826;53.246;-6.670;2023-07-28T00:26:14;2.78;;;2.08;;
55915;SDS011;41826;53.246;-6.670;2023-07-28T00:28:39;2.50;;;2.13;;
55915;SDS011;41826;53.246;-6.670;2023-07-28T00:31:04;2.67;;;2.15;;
55915;SDS011;41826;53.246;-6.670;2023-07-28T00:33:30;2.20;;;1.25;;
55915;SDS011;41826;53.246;-6.670;2023-07-28T00:35:55;3.03;;;1.48;;
55915;SDS011;41826;53.246;-6.670;2023-07-28T00:38:21;2.75;;;1.90;;
55915;SDS011;41826;53.246;-6.670;2023-07-28T00:40:46;1.90;;;1.80;;
55915;SDS011;41826;53.246;-6.670;2023-07-28T00:43:11;2.92;;;2.10;;
55915;SDS011;41826;53.246;-6.670;2023-07-28T00:45:37;1.77;;;0.90;;
55915;SDS011;41826;53.246;-6.670;2023-07-28T00:48:03;1.02;;;0.80;;
55915;SDS011;41826;53.246;-6.670;2023-07-28T00:50:37;1.20;;;0.80;;
55915;SDS011;41826;53.246;-6.670;2023-07-28T00:53:03;2.13;;;0.82;;
55915;SDS011;41826;53.246;-6.670;2023-07-28T00:55:29;2.67;;;0.70;;
55915;SDS011;41826;53.246;-6.670;2023-07-28T00:57:54;1.70;;;1.48;;
55915;SDS011;41826;53.246;-6.670;2023-07-28T01:00:20;1.92;;;1.42;;
55915;SDS011;41826;53.246;-6.670;2023-07-28T01:02:45;0.93;;;0.80;;
55915;SDS011;41826;53.246;-6.670;2023-07-28T01:05:11;2.38;;;1.95;;
55915;SDS011;41826;53.246;-6.670;2023-07-28T01:07:37;2.35;;;1.80;;
55915;SDS011;41826;53.246;-6.670;2023-07-28T01:10:13;2.83;;;1.98;;
55915;SDS011;41826;53.246;-6.670;2023-07-28T01:12:43;2.58;;;1.90;;
55915;SDS011;41826;53.246;-6.670;2023-07-28T01:15:08;2.85;;;2.00;;
55915;SDS011;41826;53.246;-6.670;2023-07-28T01:17:34;2.03;;;1.80;;
55915;SDS011;41826;53.246;-6.670;2023-07-28T01:19:59;2.28;;;2.08;;
55915;SDS011;41826;53.246;-6.670;2023-07-28T01:25:30;2.00;;;1.80;;
55915;SDS011;41826;53.246;-6.670;2023-07-28T01:28:15;2.28;;;1.85;;
55915;SDS011;41826;53.246;-6.670;2023-07-28T01:30:42;1.92;;;1.55;;
55915;SDS011;41826;53.246;-6.670;2023-07-28T01:33:07;1.88;;;1.70;;
55915;SDS011;41826;53.246;-6.670;2023-07-28T01:35:34;2.30;;;2.10;;
55915;SDS011;41826;53.246;-6.670;2023-07-28T01:38:01;1.77;;;1.67;;
55915;SDS011;41826;53.246;-6.670;2023-07-28T01:40:26;2.45;;;1.20;;
55915;SDS011;41826;53.246;-6.670;2023-07-28T01:42:52;1.88;;;1.67;;
55915;SDS011;41826;53.246;-6.670;2023-07-28T01:45:17;1.95;;;1.77;;
55915;SDS011;41826;53.246;-6.670;2023-07-28T01:47:42;1.42;;;1.33;;
55915;SDS011;41826;53.246;-6.670;2023-07-28T01:50:08;4.45;;;0.90;;
55915;SDS011;41826;53.246;-6.670;2023-07-28T01:52:33;1.45;;;1.35;;
55915;SDS011;41826;53.246;-6.670;2023-07-28T01:54:59;3.83;;;1.00;;
55915;SDS011;41826;53.246;-6.670;2023-07-28T01:57:24;2.67;;;1.60;;
55915;SDS011;41826;53.246;-6.670;2023-07-28T01:59:52;1.80;;;1.60;;
55915;SDS011;41826;53.246;-6.670;2023-07-28T02:02:18;1.35;;;1.00;;
55915;SDS011;41826;53.246;-6.670;2023-07-28T02:04:43;2.22;;;1.70;;
55915;SDS011;41826;53.246;-6.670;2023-07-28T02:07:08;6.40;;;1.60;;
55915;SDS011;41826;53.246;-6.670;2023-07-28T02:09:34;1.70;;;1.60;;
55915;SDS011;41826;53.246;-6.670;2023-07-28T02:12:08;2.03;;;1.33;;
55915;SDS011;41826;53.246;-6.670;2023-07-28T02:14:34;4.25;;;0.77;;
55915;SDS011;41826;53.246;-6.670;2023-07-28T02:16:59;3.00;;;0.70;;
55915;SDS011;41826;53.246;-6.670;2023-07-28T02:19:24;2.63;;;0.70;;
55915;SDS011;41826;53.246;-6.670;2023-07-28T02:21:50;2.47;;;1.42;;
55915;SDS011;41826;53.246;-6.670;2023-07-28T02:24:15;1.35;;;0.80;;
55915;SDS011;41826;53.246;-6.670;2023-07-28T02:26:41;1.65;;;1.45;;
55915;SDS011;41826;53.246;-6.670;2023-07-28T02:29:06;3.15;;;0.80;;
55915;SDS011;41826;53.246;-6.670;2023-07-28T02:31:32;1.40;;;1.20;;
55915;SDS011;41826;53.246;-6.670;2023-07-28T02:33:57;2.47;;;1.60;;
55915;SDS011;41826;53.246;-6.670;2023-07-28T02:36:22;1.52;;;1.10;;
55915;SDS011;41826;53.246;-6.670;2023-07-28T02:38:48;6.07;;;1.20;;
55915;SDS011;41826;53.246;-6.670;2023-07-28T02:41:13;2.17;;;1.48;;
55915;SDS011;41826;53.246;-6.670;2023-07-28T02:43:38;1.05;;;0.95;;
55915;SDS011;41826;53.246;-6.670;2023-07-28T02:46:04;2.67;;;1.15;;
55915;SDS011;41826;53.246;-6.670;2023-07-28T02:48:29;1.85;;;1.55;;
55915;SDS011;41826;53.246;-6.670;2023-07-28T02:50:55;3.45;;;0.90;;
55915;SDS011;41826;53.246;-6.670;2023-07-28T02:53:20;2.42;;;1.20;;
55915;SDS011;41826;53.246;-6.670;2023-07-28T02:55:46;5.20;;;1.48;;
55915;SDS011;41826;53.246;-6.670;2023-07-28T02:58:13;2.08;;;1.58;;
55915;SDS011;41826;53.246;-6.670;2023-07-28T03:00:39;1.77;;;1.08;;
55915;SDS011;41826;53.246;-6.670;2023-07-28T03:03:05;1.95;;;1.08;;
55915;SDS011;41826;53.246;-6.670;2023-07-28T03:05:32;4.35;;;1.77;;
55915;SDS011;41826;53.246;-6.670;2023-07-28T03:07:58;2.25;;;1.33;;
55915;SDS011;41826;53.246;-6.670;2023-07-28T03:10:23;2.28;;;1.02;;
55915;SDS011;41826;53.246;-6.670;2023-07-28T03:12:49;2.10;;;0.85;;
55915;SDS011;41826;53.246;-6.670;2023-07-28T03:15:15;1.58;;;1.20;;
55915;SDS011;41826;53.246;-6.670;2023-07-28T03:17:40;1.65;;;1.55;;
55915;SDS011;41826;53.246;-6.670;2023-07-28T03:20:05;1.60;;;1.27;;
55915;SDS011;41826;53.246;-6.670;2023-07-28T03:22:31;3.92;;;1.30;;
55915;SDS011;41826;53.246;-6.670;2023-07-28T03:24:57;1.60;;;1.42;;
55915;SDS011;41826;53.246;-6.670;2023-07-28T03:27:22;2.65;;;0.90;;
55915;SDS011;41826;53.246;-6.670;2023-07-28T03:29:48;2.50;;;1.38;;
55915;SDS011;41826;53.246;-6.670;2023-07-28T03:32:13;1.30;;;1.05;;
55915;SDS011;41826;53.246;-6.670;2023-07-28T03:34:39;4.57;;;1.65;;
55915;SDS011;41826;53.246;-6.670;2023-07-28T03:37:04;4.68;;;1.00;;
55915;SDS011;41826;53.246;-6.670;2023-07-28T03:39:30;3.28;;;1.50;;
55915;SDS011;41826;53.246;-6.670;2023-07-28T03:41:56;2.63;;;2.13;;
55915;SDS011;41826;53.246;-6.670;2023-07-28T03:44:22;3.35;;;1.77;;
55915;SDS011;41826;53.246;-6.670;2023-07-28T03:46:47;1.65;;;1.30;;
55915;SDS011;41826;53.246;-6.670;2023-07-28T03:49:13;2.47;;;1.23;;
55915;SDS011;41826;53.246;-6.670;2023-07-28T03:51:38;2.13;;;1.30;;
55915;SDS011;41826;53.246;-6.670;2023-07-28T03:54:03;1.73;;;1.63;;
55915;SDS011;41826;53.246;-6.670;2023-07-28T03:56:29;1.85;;;1.30;;
55915;SDS011;41826;53.246;-6.670;2023-07-28T03:58:54;2.53;;;1.13;;
55915;SDS011;41826;53.246;-6.670;2023-07-28T04:01:19;5.78;;;1.10;;
55915;SDS011;41826;53.246;-6.670;2023-07-28T04:03:46;2.45;;;1.40;;
55915;SDS011;41826;53.246;-6.670;2023-07-28T04:06:12;3.92;;;1.02;;
55915;SDS011;41826;53.246;-6.670;2023-07-28T04:08:38;1.67;;;1.27;;
55915;SDS011;41826;53.246;-6.670;2023-07-28T04:11:07;1.25;;;1.15;;
55915;SDS011;41826;53.246;-6.670;2023-07-28T04:13:33;4.25;;;1.27;;
55915;SDS011;41826;53.246;-6.670;2023-07-28T04:15:59;1.48;;;1.30;;
55915;SDS011;41826;53.246;-6.670;2023-07-28T04:18:25;1.58;;;0.80;;
55915;SDS011;41826;53.246;-6.670;2023-07-28T04:20:50;5.55;;;0.90;;
55915;SDS011;41826;53.246;-6.670;2023-07-28T04:23:16;1.70;;;0.82;;
55915;SDS011;41826;53.246;-6.670;2023-07-28T04:25:41;1.95;;;1.02;;
55915;SDS011;41826;53.246;-6.670;2023-07-28T04:28:06;2.15;;;0.90;;
55915;SDS011;41826;53.246;-6.670;2023-07-28T04:30:32;5.22;;;0.95;;
55915;SDS011;41826;53.246;-6.670;2023-07-28T04:32:57;1.40;;;1.00;;
55915;SDS011;41826;53.246;-6.670;2023-07-28T04:35:22;2.92;;;1.40;;
55915;SDS011;41826;53.246;-6.670;2023-07-28T04:37:48;1.63;;;1.00;;
55915;SDS011;41826;53.246;-6.670;2023-07-28T04:40:14;1.50;;;1.40;;
55915;SDS011;41826;53.246;-6.670;2023-07-28T04:42:39;2.20;;;1.27;;
55915;SDS011;41826;53.246;-6.670;2023-07-28T04:45:05;2.25;;;1.15;;
55915;SDS011;41826;53.246;-6.670;2023-07-28T04:47:31;3.97;;;1.08;;
55915;SDS011;41826;53.246;-6.670;2023-07-28T04:49:56;3.22;;;1.38;;
55915;SDS011;41826;53.246;-6.670;2023-07-28T04:52:22;4.63;;;1.33;;
55915;SDS011;41826;53.246;-6.670;2023-07-28T04:54:47;3.85;;;1.13;;
55915;SDS011;41826;53.246;-6.670;2023-07-28T04:57:13;4.95;;;1.30;;
55915;SDS011;41826;53.246;-6.670;2023-07-28T04:59:38;2.22;;;1.40;;
55915;SDS011;41826;53.246;-6.670;2023-07-28T05:02:03;1.67;;;1.00;;
55915;SDS011;41826;53.246;-6.670;2023-07-28T05:04:29;3.10;;;1.23;;
55915;SDS011;41826;53.246;-6.670;2023-07-28T05:06:54;2.53;;;1.30;;
55915;SDS011;41826;53.246;-6.670;2023-07-28T05:09:20;3.17;;;1.70;;
55915;SDS011;41826;53.246;-6.670;2023-07-28T05:11:45;2.83;;;1.05;;
55915;SDS011;41826;53.246;-6.670;2023-07-28T05:14:11;5.15;;;1.33;;
55915;SDS011;41826;53.246;-6.670;2023-07-28T05:16:36;3.05;;;0.90;;
55915;SDS011;41826;53.246;-6.670;2023-07-28T05:19:01;2.38;;;0.98;;
55915;SDS011;41826;53.246;-6.670;2023-07-28T05:21:27;4.57;;;1.00;;
55915;SDS011;41826;53.246;-6.670;2023-07-28T05:23:52;1.70;;;0.98;;
55915;SDS011;41826;53.246;-6.670;2023-07-28T05:26:18;2.83;;;1.02;;
55915;SDS011;41826;53.246;-6.670;2023-07-28T05:28:43;2.95;;;0.77;;
55915;SDS011;41826;53.246;-6.670;2023-07-28T05:31:08;3.08;;;1.00;;
55915;SDS011;41826;53.246;-6.670;2023-07-28T05:33:34;2.25;;;0.95;;
55915;SDS011;41826;53.246;-6.670;2023-07-28T05:36:00;2.47;;;1.10;;
55915;SDS011;41826;53.246;-6.670;2023-07-28T05:38:26;0.95;;;0.85;;
55915;SDS011;41826;53.246;-6.670;2023-07-28T05:40:57;1.42;;;1.10;;
55915;SDS011;41826;53.246;-6.670;2023-07-28T05:43:23;2.58;;;1.40;;
55915;SDS011;41826;53.246;-6.670;2023-07-28T05:45:48;1.48;;;0.98;;
55915;SDS011;41826;53.246;-6.670;2023-07-28T05:48:13;5.57;;;1.33;;
55915;SDS011;41826;53.246;-6.670;2023-07-28T05:50:39;4.05;;;1.13;;
55915;SDS011;41826;53.246;-6.670;2023-07-28T05:53:04;3.17;;;1.27;;
55915;SDS011;41826;53.246;-6.670;2023-07-28T05:55:29;2.78;;;1.50;;
55915;SDS011;41826;53.246;-6.670;2023-07-28T05:57:55;2.17;;;1.23;;
55915;SDS011;41826;53.246;-6.670;2023-07-28T06:00:20;3.28;;;1.27;;
55915;SDS011;41826;53.246;-6.670;2023-07-28T06:02:47;1.90;;;1.15;;
55915;SDS011;41826;53.246;-6.670;2023-07-28T06:05:12;3.20;;;1.20;;
55915;SDS011;41826;53.246;-6.670;2023-07-28T06:07:38;2.90;;;1.27;;
55915;SDS011;41826;53.246;-6.670;2023-07-28T06:10:03;2.85;;;1.25;;
55915;SDS011;41826;53.246;-6.670;2023-07-28T06:12:29;2.17;;;1.08;;
55915;SDS011;41826;53.246;-6.670;2023-07-28T06:14:54;5.03;;;1.50;;
55915;SDS011;41826;53.246;-6.670;2023-07-28T06:17:20;3.85;;;1.63;;
55915;SDS011;41826;53.246;-6.670;2023-07-28T06:19:45;1.33;;;1.02;;
55915;SDS011;41826;53.246;-6.670;2023-07-28T06:22:10;2.85;;;1.20;;
55915;SDS011;41826;53.246;-6.670;2023-07-28T06:24:36;2.65;;;1.10;;
55915;SDS011;41826;53.246;-6.670;2023-07-28T06:27:01;1.60;;;1.00;;
55915;SDS011;41826;53.246;-6.670;2023-07-28T06:29:32;2.90;;;1.30;;
55915;SDS011;41826;53.246;-6.670;2023-07-28T06:31:57;2.33;;;1.08;;
55915;SDS011;41826;53.246;-6.670;2023-07-28T06:34:23;2.50;;;0.93;;
55915;SDS011;41826;53.246;-6.670;2023-07-28T06:36:48;1.67;;;1.25;;
55915;SDS011;41826;53.246;-6.670;2023-07-28T06:39:13;2.38;;;0.90;;
55915;SDS011;41826;53.246;-6.670;2023-07-28T06:41:39;1.33;;;1.05;;
55915;SDS011;41826;53.246;-6.670;2023-07-28T06:44:04;3.20;;;1.40;;
55915;SDS011;41826;53.246;-6.670;2023-07-28T06:46:29;1.42;;;1.13;;
55915;SDS011;41826;53.246;-6.670;2023-07-28T06:48:55;1.05;;;0.80;;
55915;SDS011;41826;53.246;-6.670;2023-07-28T06:51:20;4.68;;;0.90;;
55915;SDS011;41826;53.246;-6.670;2023-07-28T06:53:46;1.80;;;0.90;;
55915;SDS011;41826;53.246;-6.670;2023-07-28T06:56:11;1.88;;;1.00;;
55915;SDS011;41826;53.246;-6.670;2023-07-28T06:58:37;3.50;;;0.95;;
55915;SDS011;41826;53.246;-6.670;2023-07-28T07:01:02;3.17;;;1.00;;
55915;SDS011;41826;53.246;-6.670;2023-07-28T07:03:27;2.55;;;1.02;;
55915;SDS011;41826;53.246;-6.670;2023-07-28T07:05:53;1.02;;;0.75;;
55915;SDS011;41826;53.246;-6.670;2023-07-28T07:08:20;0.82;;;0.75;;
55915;SDS011;41826;53.246;-6.670;2023-07-28T07:10:47;2.50;;;0.88;;
55915;SDS011;41826;53.246;-6.670;2023-07-28T07:13:14;2.35;;;0.88;;
55915;SDS011;41826;53.246;-6.670;2023-07-28T07:15:39;2.35;;;1.50;;
55915;SDS011;41826;53.246;-6.670;2023-07-28T07:18:05;3.03;;;1.10;;
55915;SDS011;41826;53.246;-6.670;2023-07-28T07:20:33;3.70;;;1.20;;
55915;SDS011;41826;53.246;-6.670;2023-07-28T07:22:59;2.38;;;1.17;;
55915;SDS011;41826;53.246;-6.670;2023-07-28T07:25:25;0.68;;;0.68;;
55915;SDS011;41826;53.246;-6.670;2023-07-28T07:27:50;1.42;;;0.55;;
55915;SDS011;41826;53.246;-6.670;2023-07-28T07:30:15;0.88;;;0.63;;
55915;SDS011;41826;53.246;-6.670;2023-07-28T07:32:41;3.88;;;1.30;;
55915;SDS011;41826;53.246;-6.670;2023-07-28T07:35:07;1.50;;;0.70;;
55915;SDS011;41826;53.246;-6.670;2023-07-28T07:37:33;1.80;;;0.80;;
55915;SDS011;41826;53.246;-6.670;2023-07-28T07:39:59;2.30;;;0.80;;
55915;SDS011;41826;53.246;-6.670;2023-07-28T07:42:26;3.10;;;1.25;;
55915;SDS011;41826;53.246;-6.670;2023-07-28T07:44:52;3.13;;;0.85;;
55915;SDS011;41826;53.246;-6.670;2023-07-28T07:47:17;1.63;;;0.90;;
55915;SDS011;41826;53.246;-6.670;2023-07-28T07:49:43;1.75;;;0.70;;
55915;SDS011;41826;53.246;-6.670;2023-07-28T07:52:09;1.00;;;0.80;;
55915;SDS011;41826;53.246;-6.670;2023-07-28T07:54:35;1.90;;;0.70;;
55915;SDS011;41826;53.246;-6.670;2023-07-28T07:57:01;0.85;;;0.65;;
55915;SDS011;41826;53.246;-6.670;2023-07-28T07:59:27;1.90;;;0.80;;
55915;SDS011;41826;53.246;-6.670;2023-07-28T08:01:53;0.73;;;0.65;;
55915;SDS011;41826;53.246;-6.670;2023-07-28T08:04:18;3.05;;;0.75;;
55915;SDS011;41826;53.246;-6.670;2023-07-28T08:06:43;1.02;;;0.70;;
55915;SDS011;41826;53.246;-6.670;2023-07-28T08:09:09;1.38;;;0.52;;
55915;SDS011;41826;53.246;-6.670;2023-07-28T08:11:35;1.10;;;0.60;;
55915;SDS011;41826;53.246;-6.670;2023-07-28T08:14:00;1.50;;;0.65;;
55915;SDS011;41826;53.246;-6.670;2023-07-28T08:16:25;3.35;;;1.00;;
55915;SDS011;41826;53.246;-6.670;2023-07-28T08:18:51;1.15;;;0.70;;
55915;SDS011;41826;53.246;-6.670;2023-07-28T08:21:16;2.42;;;1.00;;
55915;SDS011;41826;53.246;-6.670;2023-07-28T08:23:41;1.30;;;0.73;;
55915;SDS011;41826;53.246;-6.670;2023-07-28T08:26:07;1.73;;;0.82;;
55915;SDS011;41826;53.246;-6.670;2023-07-28T08:28:32;4.75;;;0.90;;
55915;SDS011;41826;53.246;-6.670;2023-07-28T08:30:58;1.08;;;0.60;;
55915;SDS011;41826;53.246;-6.670;2023-07-28T08:33:24;2.45;;;0.80;;
55915;SDS011;41826;53.246;-6.670;2023-07-28T08:35:49;0.85;;;0.80;;
55915;SDS011;41826;53.246;-6.670;2023-07-28T08:38:15;0.90;;;0.70;;
55915;SDS011;41826;53.246;-6.670;2023-07-28T08:40:40;1.52;;;0.70;;
55915;SDS011;41826;53.246;-6.670;2023-07-28T08:43:09;3.80;;;0.77;;
55915;SDS011;41826;53.246;-6.670;2023-07-28T08:45:34;1.65;;;0.50;;
55915;SDS011;41826;53.246;-6.670;2023-07-28T08:48:00;1.90;;;0.70;;
55915;SDS011;41826;53.246;-6.670;2023-07-28T08:50:25;1.88;;;0.70;;
55915;SDS011;41826;53.246;-6.670;2023-07-28T08:52:51;5.45;;;0.90;;
55915;SDS011;41826;53.246;-6.670;2023-07-28T08:55:16;1.80;;;0.70;;
55915;SDS011;41826;53.246;-6.670;2023-07-28T08:57:42;0.80;;;0.60;;
55915;SDS011;41826;53.246;-6.670;2023-07-28T09:00:11;1.92;;;0.50;;
55915;SDS011;41826;53.246;-6.670;2023-07-28T09:02:41;1.52;;;0.57;;
55915;SDS011;41826;53.246;-6.670;2023-07-28T09:05:08;2.97;;;0.80;;
55915;SDS011;41826;53.246;-6.670;2023-07-28T09:07:42;0.73;;;0.50;;
55915;SDS011;41826;53.246;-6.670;2023-07-28T09:10:08;2.17;;;0.60;;
55915;SDS011;41826;53.246;-6.670;2023-07-28T09:12:33;2.53;;;0.52;;
55915;SDS011;41826;53.246;-6.670;2023-07-28T09:14:59;1.88;;;0.70;;
55915;SDS011;41826;53.246;-6.670;2023-07-28T09:17:24;1.45;;;0.70;;
55915;SDS011;41826;53.246;-6.670;2023-07-28T09:19:51;2.03;;;0.70;;
55915;SDS011;41826;53.246;-6.670;2023-07-28T09:22:17;5.70;;;0.55;;
55915;SDS011;41826;53.246;-6.670;2023-07-28T09:24:44;3.95;;;0.82;;
55915;SDS011;41826;53.246;-6.670;2023-07-28T09:27:12;2.70;;;0.65;;
55915;SDS011;41826;53.246;-6.670;2023-07-28T09:29:47;1.05;;;0.57;;
55915;SDS011;41826;53.246;-6.670;2023-07-28T09:32:13;2.55;;;1.10;;
55915;SDS011;41826;53.246;-6.670;2023-07-28T09:34:39;1.58;;;0.70;;
55915;SDS011;41826;53.246;-6.670;2023-07-28T09:37:04;3.42;;;0.73;;
55915;SDS011;41826;53.246;-6.670;2023-07-28T09:39:30;0.65;;;0.47;;
55915;SDS011;41826;53.246;-6.670;2023-07-28T09:41:56;2.55;;;0.80;;
55915;SDS011;41826;53.246;-6.670;2023-07-28T09:44:24;0.60;;;0.40;;
55915;SDS011;41826;53.246;-6.670;2023-07-28T09:46:54;1.25;;;0.47;;
55915;SDS011;41826;53.246;-6.670;2023-07-28T09:49:22;0.95;;;0.60;;
55915;SDS011;41826;53.246;-6.670;2023-07-28T09:52:08;1.30;;;0.55;;
55915;SDS011;41826;53.246;-6.670;2023-07-28T09:54:38;4.85;;;1.88;;
55915;SDS011;41826;53.246;-6.670;2023-07-28T09:57:07;2.08;;;0.60;;
55915;SDS011;41826;53.246;-6.670;2023-07-28T09:59:39;1.20;;;0.65;;
55915;SDS011;41826;53.246;-6.670;2023-07-28T10:02:06;1.55;;;0.55;;
55915;SDS011;41826;53.246;-6.670;2023-07-28T10:04:32;11.73;;;3.83;;
55915;SDS011;41826;53.246;-6.670;2023-07-28T10:06:59;0.40;;;0.40;;
55915;SDS011;41826;53.246;-6.670;2023-07-28T10:09:26;1.55;;;0.28;;
55915;SDS011;41826;53.246;-6.670;2023-07-28T10:11:53;1.95;;;0.38;;
55915;SDS011;41826;53.246;-6.670;2023-07-28T10:14:29;2.33;;;0.57;;
55915;SDS011;41826;53.246;-6.670;2023-07-28T10:16:59;1.10;;;0.40;;
55915;SDS011;41826;53.246;-6.670;2023-07-28T10:19:33;0.88;;;0.60;;
55915;SDS011;41826;53.246;-6.670;2023-07-28T10:22:00;1.58;;;0.32;;
55915;SDS011;41826;53.246;-6.670;2023-07-28T10:29:59;3.72;;;0.40;;
55915;SDS011;41826;53.246;-6.670;2023-07-28T10:32:26;0.95;;;0.30;;
55915;SDS011;41826;53.246;-6.670;2023-07-28T10:35:00;0.40;;;0.30;;
55915;SDS011;41826;53.246;-6.670;2023-07-28T10:37:26;3.00;;;0.65;;
55915;SDS011;41826;53.246;-6.670;2023-07-28T10:40:37;0.85;;;0.52;;
55915;SDS011;41826;53.246;-6.670;2023-07-28T10:42:47;1.02;;;0.40;;
55915;SDS011;41826;53.246;-6.670;2023-07-28T10:45:12;2.50;;;0.63;;
55915;SDS011;41826;53.246;-6.670;2023-07-28T10:47:38;1.55;;;0.30;;
55915;SDS011;41826;53.246;-6.670;2023-07-28T10:50:05;2.03;;;0.40;;
55915;SDS011;41826;53.246;-6.670;2023-07-28T10:52:34;0.73;;;0.38;;
55915;SDS011;41826;53.246;-6.670;2023-07-28T10:54:59;0.50;;;0.30;;
55915;SDS011;41826;53.246;-6.670;2023-07-28T10:57:25;2.70;;;0.30;;
55915;SDS011;41826;53.246;-6.670;2023-07-28T10:59:51;0.60;;;0.30;;
55915;SDS011;41826;53.246;-6.670;2023-07-28T11:02:16;4.10;;;0.40;;
55915;SDS011;41826;53.246;-6.670;2023-07-28T11:04:46;0.52;;;0.38;;
55915;SDS011;41826;53.246;-6.670;2023-07-28T11:07:14;5.45;;;0.68;;
55915;SDS011;41826;53.246;-6.670;2023-07-28T11:09:40;1.63;;;0.32;;
55915;SDS011;41826;53.246;-6.670;2023-07-28T11:12:08;1.50;;;0.30;;
55915;SDS011;41826;53.246;-6.670;2023-07-28T11:14:35;1.80;;;0.32;;
55915;SDS011;41826;53.246;-6.670;2023-07-28T11:17:01;0.30;;;0.30;;
55915;SDS011;41826;53.246;-6.670;2023-07-28T11:19:26;1.10;;;0.40;;
55915;SDS011;41826;53.246;-6.670;2023-07-28T11:21:52;0.20;;;0.20;;
55915;SDS011;41826;53.246;-6.670;2023-07-28T11:24:19;0.55;;;0.47;;
55915;SDS011;41826;53.246;-6.670;2023-07-28T11:26:46;0.80;;;0.50;;
55915;SDS011;41826;53.246;-6.670;2023-07-28T11:29:11;0.50;;;0.50;;
55915;SDS011;41826;53.246;-6.670;2023-07-28T11:31:37;4.93;;;0.40;;
55915;SDS011;41826;53.246;-6.670;2023-07-28T11:34:04;1.48;;;0.65;;
55915;SDS011;41826;53.246;-6.670;2023-07-28T11:36:38;1.15;;;0.52;;
55915;SDS011;41826;53.246;-6.670;2023-07-28T11:39:03;0.82;;;0.40;;
55915;SDS011;41826;53.246;-6.670;2023-07-28T11:41:30;1.75;;;0.70;;
55915;SDS011;41826;53.246;-6.670;2023-07-28T11:43:56;1.02;;;0.47;;
55915;SDS011;41826;53.246;-6.670;2023-07-28T11:46:31;2.15;;;0.57;;
55915;SDS011;41826;53.246;-6.670;2023-07-28T11:51:36;1.20;;;0.50;;
55915;SDS011;41826;53.246;-6.670;2023-07-28T11:54:03;4.32;;;0.70;;
55915;SDS011;41826;53.246;-6.670;2023-07-28T11:56:29;0.55;;;0.50;;
55915;SDS011;41826;53.246;-6.670;2023-07-28T11:58:54;2.28;;;0.55;;
55915;SDS011;41826;53.246;-6.670;2023-07-28T12:01:20;2.33;;;0.65;;
55915;SDS011;41826;53.246;-6.670;2023-07-28T12:03:45;1.25;;;0.88;;
55915;SDS011;41826;53.246;-6.670;2023-07-28T12:06:11;3.95;;;1.10;;
55915;SDS011;41826;53.246;-6.670;2023-07-28T12:08:36;1.55;;;1.10;;
55915;SDS011;41826;53.246;-6.670;2023-07-28T12:11:02;1.48;;;0.77;;
55915;SDS011;41826;53.246;-6.670;2023-07-28T12:13:28;0.68;;;0.50;;
55915;SDS011;41826;53.246;-6.670;2023-07-28T12:15:54;1.90;;;0.70;;
55915;SDS011;41826;53.246;-6.670;2023-07-28T12:18:19;1.52;;;0.70;;
55915;SDS011;41826;53.246;-6.670;2023-07-28T12:20:46;1.35;;;0.90;;
55915;SDS011;41826;53.246;-6.670;2023-07-28T12:23:13;1.05;;;0.70;;
55915;SDS011;41826;53.246;-6.670;2023-07-28T12:25:40;3.08;;;0.82;;
55915;SDS011;41826;53.246;-6.670;2023-07-28T12:28:06;1.52;;;0.80;;
55915;SDS011;41826;53.246;-6.670;2023-07-28T12:30:32;1.85;;;0.70;;
55915;SDS011;41826;53.246;-6.670;2023-07-28T12:33:02;2.45;;;0.60;;
55915;SDS011;41826;53.246;-6.670;2023-07-28T12:35:28;0.63;;;0.50;;
55915;SDS011;41826;53.246;-6.670;2023-07-28T12:37:59;0.50;;;0.50;;
55915;SDS011;41826;53.246;-6.670;2023-07-28T12:40:25;0.90;;;0.50;;
55915;SDS011;41826;53.246;-6.670;2023-07-28T12:42:54;1.52;;;0.82;;
55915;SDS011;41826;53.246;-6.670;2023-07-28T12:45:20;1.38;;;0.50;;
55915;SDS011;41826;53.246;-6.670;2023-07-28T12:47:46;3.42;;;0.70;;
55915;SDS011;41826;53.246;-6.670;2023-07-28T12:50:12;1.95;;;0.70;;
55915;SDS011;41826;53.246;-6.670;2023-07-28T12:52:37;1.58;;;0.75;;
55915;SDS011;41826;53.246;-6.670;2023-07-28T12:55:03;2.60;;;0.65;;
55915;SDS011;41826;53.246;-6.670;2023-07-28T12:57:28;0.60;;;0.60;;
55915;SDS011;41826;53.246;-6.670;2023-07-28T12:59:54;3.08;;;0.88;;
55915;SDS011;41826;53.246;-6.670;2023-07-28T13:02:19;2.45;;;0.68;;
55915;SDS011;41826;53.246;-6.670;2023-07-28T13:04:45;4.82;;;0.80;;
55915;SDS011;41826;53.246;-6.670;2023-07-28T13:07:10;1.42;;;0.80;;
55915;SDS011;41826;53.246;-6.670;2023-07-28T13:09:36;1.63;;;0.70;;
55915;SDS011;41826;53.246;-6.670;2023-07-28T13:12:01;1.67;;;0.70;;
55915;SDS011;41826;53.246;-6.670;2023-07-28T13:14:27;0.73;;;0.50;;
55915;SDS011;41826;53.246;-6.670;2023-07-28T13:16:52;2.45;;;0.70;;
55915;SDS011;41826;53.246;-6.670;2023-07-28T13:19:17;0.50;;;0.50;;
55915;SDS011;41826;53.246;-6.670;2023-07-28T13:21:43;2.58;;;0.80;;
55915;SDS011;41826;53.246;-6.670;2023-07-28T13:24:08;3.63;;;0.60;;
55915;SDS011;41826;53.246;-6.670;2023-07-28T13:26:34;1.25;;;0.70;;
55915;SDS011;41826;53.246;-6.670;2023-07-28T13:28:59;0.60;;;0.50;;
55915;SDS011;41826;53.246;-6.670;2023-07-28T13:31:26;1.13;;;0.52;;
55915;SDS011;41826;53.246;-6.670;2023-07-28T13:33:55;0.88;;;0.43;;
55915;SDS011;41826;53.246;-6.670;2023-07-28T13:36:20;1.02;;;0.40;;
55915;SDS011;41826;53.246;-6.670;2023-07-28T13:38:45;1.27;;;0.65;;
55915;SDS011;41826;53.246;-6.670;2023-07-28T13:41:11;1.35;;;0.70;;
55915;SDS011;41826;53.246;-6.670;2023-07-28T13:43:36;2.08;;;0.40;;
55915;SDS011;41826;53.246;-6.670;2023-07-28T13:46:05;4.90;;;0.80;;
55915;SDS011;41826;53.246;-6.670;2023-07-28T13:48:31;1.25;;;0.60;;
55915;SDS011;41826;53.246;-6.670;2023-07-28T13:50:57;1.65;;;0.57;;
55915;SDS011;41826;53.246;-6.670;2023-07-28T13:53:23;1.08;;;0.55;;
55915;SDS011;41826;53.246;-6.670;2023-07-28T13:55:49;0.95;;;0.55;;
55915;SDS011;41826;53.246;-6.670;2023-07-28T13:58:15;1.05;;;0.57;;
55915;SDS011;41826;53.246;-6.670;2023-07-28T14:00:40;3.83;;;0.60;;
55915;SDS011;41826;53.246;-6.670;2023-07-28T14:03:06;0.80;;;0.55;;
55915;SDS011;41826;53.246;-6.670;2023-07-28T14:05:31;0.52;;;0.47;;
55915;SDS011;41826;53.246;-6.670;2023-07-28T14:07:56;1.83;;;0.60;;
55915;SDS011;41826;53.246;-6.670;2023-07-28T14:10:22;1.27;;;0.47;;
55915;SDS011;41826;53.246;-6.670;2023-07-28T14:12:48;0.65;;;0.30;;
55915;SDS011;41826;53.246;-6.670;2023-07-28T14:15:14;0.82;;;0.45;;
55915;SDS011;41826;53.246;-6.670;2023-07-28T14:17:39;0.50;;;0.50;;
55915;SDS011;41826;53.246;-6.670;2023-07-28T14:20:05;0.75;;;0.60;;
55915;SDS011;41826;53.246;-6.670;2023-07-28T14:22:31;2.60;;;0.63;;
55915;SDS011;41826;53.246;-6.670;2023-07-28T14:24:56;0.98;;;0.60;;
55915;SDS011;41826;53.246;-6.670;2023-07-28T14:27:22;0.77;;;0.47;;
55915;SDS011;41826;53.246;-6.670;2023-07-28T14:29:47;1.40;;;0.35;;
55915;SDS011;41826;53.246;-6.670;2023-07-28T14:32:12;1.35;;;0.65;;
55915;SDS011;41826;53.246;-6.670;2023-07-28T14:34:38;2.75;;;0.85;;
55915;SDS011;41826;53.246;-6.670;2023-07-28T14:37:04;0.90;;;0.60;;
55915;SDS011;41826;53.246;-6.670;2023-07-28T14:39:30;2.45;;;0.40;;